CPA256 EGLL-VHHH
Flight info
| Callsign | CPA256 |
|---|---|
| Flight time | N/A |
| Altitude | 35000 |
| Route | DET L6 DVR UL9 KONAN DCT KOK DCT DENOX DCT MATUG DCT AMASI DCT BOMBI DCT TENLO DCT DEXIT DCT BEGLA DCT BALUX DCT BKS/N0492F370 DCT EVRIK DCT EMPOS DCT IRLOX DCT OPT DCT LUGEB DCT UDROS DCT BAMUP DCT ROLIN DCT FOQUS DCT LAGAS DCT DISKA M737 VERCA M747 SUBUT T916 BALUN/K0904F370 T916 KUNAS/K0911F390 N193 SR L163 TISIB L141 KAMUD/K0906S1190 W186 SADAN Y1 LUSMA/K0900S1250 Y1 OMBON W245 OVRAL B330 KWE W181 DUDIT A599 POU R473 SIERA |
| Aircraft | A359/H-SDE2E3GHIJ3J4J5LM1ORWXY/LB1D1 |
Departure
| Time | 2026-04-30 20:45 |
|---|---|
| Airport | London Heathrow Airport (EGLL) |
Arrival
| Time | N/A |
|---|---|
| Airport | Hong Kong International Airport (VHHH) |
| Time | Latitude | Longitude | Altitude | Speed | Heading |
|---|---|---|---|---|---|
| 2026-04-30 20:03 | 51.47319 | -0.46584 | 92 ft | 0 kts | 89° |
| 2026-04-30 20:28 | 51.47321 | -0.46637 | 93 ft | 4 kts | 102° |
| 2026-04-30 20:28 | 51.47343 | -0.46713 | 94 ft | 4 kts | 143° |
| 2026-04-30 20:29 | 51.47366 | -0.46726 | 93 ft | 0 kts | 180° |
| 2026-04-30 20:35 | 51.47364 | -0.46726 | 92 ft | 2 kts | 180° |
| 2026-04-30 20:35 | 51.47292 | -0.46726 | 92 ft | 10 kts | 181° |
| 2026-04-30 20:36 | 51.47245 | -0.46792 | 95 ft | 9 kts | 249° |
| 2026-04-30 20:36 | 51.47201 | -0.46859 | 97 ft | 9 kts | 194° |
| 2026-04-30 20:36 | 51.47086 | -0.46863 | 94 ft | 10 kts | 179° |
| 2026-04-30 20:37 | 51.47058 | -0.46862 | 95 ft | 10 kts | 180° |
| 2026-04-30 20:37 | 51.46983 | -0.46863 | 95 ft | 11 kts | 180° |
| 2026-04-30 20:37 | 51.46905 | -0.46864 | 96 ft | 12 kts | 180° |
| 2026-04-30 20:37 | 51.46833 | -0.46862 | 95 ft | 5 kts | 179° |
| 2026-04-30 20:38 | 51.46826 | -0.46862 | 95 ft | 0 kts | 179° |
| 2026-04-30 20:38 | 51.46813 | -0.46862 | 95 ft | 6 kts | 179° |
| 2026-04-30 20:39 | 51.46704 | -0.46863 | 95 ft | 9 kts | 189° |
| 2026-04-30 20:39 | 51.46665 | -0.46928 | 96 ft | 8 kts | 252° |
| 2026-04-30 20:39 | 51.46658 | -0.47029 | 96 ft | 10 kts | 268° |
| 2026-04-30 20:40 | 51.46655 | -0.47268 | 95 ft | 12 kts | 271° |
| 2026-04-30 20:40 | 51.46656 | -0.47400 | 95 ft | 13 kts | 270° |
| 2026-04-30 20:40 | 51.46656 | -0.47549 | 95 ft | 14 kts | 270° |
| 2026-04-30 20:41 | 51.46654 | -0.47876 | 94 ft | 15 kts | 269° |
| 2026-04-30 20:41 | 51.46654 | -0.48040 | 92 ft | 12 kts | 270° |
| 2026-04-30 20:41 | 51.46654 | -0.48080 | 95 ft | 0 kts | 270° |
| 2026-04-30 20:42 | 51.46654 | -0.48123 | 92 ft | 11 kts | 270° |
| 2026-04-30 20:42 | 51.46652 | -0.48401 | 94 ft | 13 kts | 269° |
| 2026-04-30 20:43 | 51.46651 | -0.48547 | 92 ft | 14 kts | 269° |
| 2026-04-30 20:43 | 51.46645 | -0.48712 | 95 ft | 13 kts | 249° |
| 2026-04-30 20:43 | 51.46601 | -0.48761 | 96 ft | 0 kts | 202° |
| 2026-04-30 20:44 | 51.46555 | -0.48781 | 95 ft | 11 kts | 188° |
| 2026-04-30 20:44 | 51.46488 | -0.48727 | 96 ft | 11 kts | 128° |
| 2026-04-30 20:44 | 51.46483 | -0.48161 | 97 ft | 71 kts | 89° |
| 2026-04-30 20:45 | 51.46491 | -0.45311 | 187 ft | 170 kts | 89° |
| 2026-04-30 20:45 | 51.46487 | -0.43396 | 804 ft | 176 kts | 90° |
| 2026-04-30 20:45 | 51.46232 | -0.41548 | 1672 ft | 163 kts | 119° |
| 2026-04-30 20:46 | 51.44502 | -0.36113 | 2765 ft | 210 kts | 116° |
| 2026-04-30 20:46 | 51.43954 | -0.33815 | 2968 ft | 231 kts | 113° |
| 2026-04-30 20:47 | 51.42873 | -0.28777 | 3972 ft | 245 kts | 110° |
| 2026-04-30 20:47 | 51.42456 | -0.26108 | 4438 ft | 254 kts | 106° |
| 2026-04-30 20:48 | 51.41686 | -0.20446 | 5472 ft | 265 kts | 105° |
| 2026-04-30 20:48 | 51.41294 | -0.17550 | 6108 ft | 267 kts | 104° |
| 2026-04-30 20:48 | 51.40896 | -0.14633 | 6739 ft | 269 kts | 104° |
| 2026-04-30 20:48 | 51.40497 | -0.11693 | 7345 ft | 271 kts | 105° |
| 2026-04-30 20:49 | 51.40089 | -0.08739 | 8005 ft | 272 kts | 105° |
| 2026-04-30 20:49 | 51.39676 | -0.05769 | 8660 ft | 274 kts | 105° |
| 2026-04-30 20:49 | 51.39262 | -0.02786 | 9310 ft | 276 kts | 105° |
| 2026-04-30 20:50 | 51.38424 | 0.03234 | 10593 ft | 279 kts | 105° |
| 2026-04-30 20:50 | 51.37995 | 0.06302 | 11137 ft | 284 kts | 105° |
| 2026-04-30 20:50 | 51.37564 | 0.09405 | 11687 ft | 288 kts | 105° |
| 2026-04-30 20:50 | 51.37115 | 0.12620 | 12006 ft | 302 kts | 105° |
| 2026-04-30 20:51 | 51.36638 | 0.15983 | 12274 ft | 317 kts | 105° |
| 2026-04-30 20:51 | 51.35624 | 0.23183 | 12764 ft | 345 kts | 105° |
| 2026-04-30 20:51 | 51.35083 | 0.26991 | 13008 ft | 358 kts | 105° |
| 2026-04-30 20:52 | 51.34522 | 0.30941 | 13208 ft | 371 kts | 105° |